createdAt,value
2019-04-07T00:02:17.444Z,7.63
2019-04-07T00:04:48.939Z,7.60
2019-04-07T00:07:20.372Z,7.46
2019-04-07T00:09:52.766Z,7.46
2019-04-07T00:12:24.313Z,7.58
2019-04-07T00:14:56.215Z,7.62
2019-04-07T00:17:27.791Z,7.63
2019-04-07T00:19:59.126Z,7.60
2019-04-07T00:22:30.506Z,7.55
2019-04-07T00:25:02.564Z,7.51
2019-04-07T00:27:34.157Z,7.43
2019-04-07T00:30:07.624Z,7.41
2019-04-07T00:32:39.072Z,7.36
2019-04-07T00:35:22.155Z,7.34
2019-04-07T00:37:44.895Z,7.33
2019-04-07T00:40:17.470Z,7.32
2019-04-07T00:42:49.012Z,7.34
2019-04-07T00:45:20.644Z,7.28
2019-04-07T00:47:52.617Z,7.28
2019-04-07T00:50:24.170Z,7.23
2019-04-07T00:52:55.520Z,7.24
2019-04-07T00:55:26.986Z,7.15
2019-04-07T00:57:58.490Z,7.20
2019-04-07T01:00:31.487Z,7.20
2019-04-07T01:03:02.988Z,7.25
2019-04-07T01:05:38.484Z,7.20
2019-04-07T01:08:07.501Z,7.18
2019-04-07T01:10:38.939Z,7.14
2019-04-07T01:13:26.225Z,7.16
2019-04-07T01:15:58.040Z,7.14
2019-04-07T01:18:33.839Z,7.09
2019-04-07T01:21:05.599Z,7.04
2019-04-07T01:23:37.047Z,6.99
2019-04-07T01:26:08.638Z,6.95
2019-04-07T01:28:40.668Z,6.93
2019-04-07T01:31:12.311Z,6.90
2019-04-07T01:33:44.275Z,6.90
2019-04-07T01:36:16.097Z,6.89
2019-04-07T01:38:47.692Z,6.82
2019-04-07T01:41:32.908Z,6.83
2019-04-07T01:44:06.060Z,6.76
2019-04-07T01:46:41.788Z,6.77
2019-04-07T01:49:18.394Z,6.75
2019-04-07T01:51:54.351Z,6.74
2019-04-07T01:54:42.092Z,6.77
2019-04-07T01:57:21.377Z,6.73
2019-04-07T01:59:57.327Z,6.71
2019-04-07T02:02:40.118Z,6.71
2019-04-07T02:05:28.778Z,6.69
2019-04-07T02:08:05.477Z,6.67
2019-04-07T02:10:41.612Z,6.71
2019-04-07T02:13:29.633Z,6.64
2019-04-07T02:16:09.189Z,6.62
2019-04-07T02:18:42.304Z,6.64
2019-04-07T02:21:15.260Z,6.65
2019-04-07T02:23:51.000Z,6.68
2019-04-07T02:26:39.126Z,6.66
2019-04-07T02:29:12.626Z,6.66
2019-04-07T02:31:48.430Z,6.59
2019-04-07T02:34:22.006Z,6.60
2019-04-07T02:36:55.860Z,6.59
2019-04-07T02:39:35.209Z,6.61
2019-04-07T02:42:11.333Z,6.60
2019-04-07T02:45:01.399Z,6.53
2019-04-07T02:47:37.678Z,6.58
2019-04-07T02:50:27.834Z,6.52
2019-04-07T02:53:19.513Z,6.51
2019-04-07T02:56:10.672Z,6.48
2019-04-07T02:58:47.636Z,6.50
2019-04-07T03:01:33.051Z,6.48
2019-04-07T03:04:12.748Z,6.11
2019-04-07T03:07:02.709Z,6.25
2019-04-07T03:09:45.981Z,6.20
2019-04-07T03:12:19.143Z,6.26
2019-04-07T03:15:11.086Z,5.91
2019-04-07T03:18:00.710Z,6.08
2019-04-07T03:20:39.195Z,6.25
2019-04-07T03:23:16.158Z,6.24
2019-04-07T03:25:55.314Z,6.22
2019-04-07T03:28:34.681Z,6.29
2019-04-07T03:31:12.635Z,6.33
2019-04-07T03:33:56.457Z,6.38
2019-04-07T03:37:03.009Z,6.47
2019-04-07T03:39:10.777Z,6.54
2019-04-07T03:41:44.032Z,6.59
2019-04-07T03:44:18.534Z,6.41
2019-04-07T03:47:01.444Z,6.73
2019-04-07T03:49:50.874Z,6.67
2019-04-07T03:52:29.739Z,6.76
2019-04-07T03:55:02.752Z,6.49
2019-04-07T03:57:45.149Z,6.48
2019-04-07T04:00:50.364Z,7.05
2019-04-07T04:03:26.540Z,7.02
2019-04-07T04:06:16.223Z,6.77
2019-04-07T04:08:49.226Z,6.88
2019-04-07T04:11:23.501Z,7.01
2019-04-07T04:14:02.967Z,7.09
2019-04-07T04:16:36.167Z,7.52
2019-04-07T04:19:08.274Z,7.70
2019-04-07T04:21:40.405Z,7.79
2019-04-07T04:24:12.273Z,7.97
2019-04-07T04:26:44.131Z,7.98
2019-04-07T04:29:15.696Z,8.16
2019-04-07T04:31:47.472Z,8.24
2019-04-07T04:34:20.521Z,8.24
2019-04-07T04:36:53.050Z,8.25
2019-04-07T04:39:25.316Z,8.40
2019-04-07T04:41:57.631Z,8.10
2019-04-07T04:44:29.506Z,8.44
2019-04-07T04:47:01.623Z,8.67
2019-04-07T04:49:35.132Z,8.58
2019-04-07T04:52:07.141Z,8.75
2019-04-07T04:54:38.896Z,8.83
2019-04-07T04:57:11.146Z,9.23
2019-04-07T04:59:42.633Z,9.10
2019-04-07T05:02:14.021Z,9.35
2019-04-07T05:04:45.874Z,8.86
2019-04-07T05:07:17.376Z,9.00
2019-04-07T05:09:52.860Z,8.96
2019-04-07T05:12:22.027Z,9.02
2019-04-07T05:14:53.668Z,8.98
2019-04-07T05:17:26.067Z,8.98
2019-04-07T05:19:57.722Z,9.09
2019-04-07T05:22:29.253Z,9.34
2019-04-07T05:25:00.967Z,9.82
2019-04-07T05:27:32.729Z,9.82
2019-04-07T05:30:07.832Z,9.96
2019-04-07T05:32:39.971Z,10.02
2019-04-07T05:35:12.074Z,10.30
2019-04-07T05:37:43.636Z,10.34
2019-04-07T05:40:16.602Z,10.57
2019-04-07T05:42:48.349Z,10.51
2019-04-07T05:45:20.448Z,10.82
2019-04-07T05:47:53.365Z,10.90
2019-04-07T05:50:28.067Z,11.02
2019-04-07T05:52:58.735Z,11.21
2019-04-07T05:55:30.489Z,11.41
2019-04-07T05:58:05.131Z,11.56
2019-04-07T06:00:35.297Z,11.68
2019-04-07T06:03:08.481Z,11.89
2019-04-07T06:05:40.079Z,11.91
2019-04-07T06:08:22.671Z,11.99
2019-04-07T06:10:45.908Z,12.16
2019-04-07T06:13:17.688Z,12.35
2019-04-07T06:15:51.130Z,12.61
2019-04-07T06:18:22.897Z,12.48
2019-04-07T06:20:54.526Z,12.60
2019-04-07T06:23:29.377Z,12.45
2019-04-07T06:26:00.243Z,12.61
2019-04-07T06:28:31.731Z,12.57
2019-04-07T06:31:03.275Z,12.62
2019-04-07T06:33:38.095Z,12.52
2019-04-07T06:36:08.463Z,12.48
2019-04-07T06:38:43.262Z,12.58
2019-04-07T06:41:13.801Z,13.01
2019-04-07T06:43:45.383Z,13.05
2019-04-07T06:46:22.649Z,13.14
2019-04-07T06:49:13.957Z,12.90
2019-04-07T06:51:47.930Z,13.02
2019-04-07T06:54:37.722Z,12.81
2019-04-07T06:57:23.343Z,12.82
2019-04-07T07:00:12.845Z,13.08
2019-04-07T07:02:46.143Z,13.13
2019-04-07T07:05:28.918Z,13.24
2019-04-07T07:08:21.098Z,13.38
2019-04-07T07:10:59.361Z,13.39
2019-04-07T07:13:36.690Z,13.47
2019-04-07T07:16:14.640Z,13.52
2019-04-07T07:18:45.891Z,13.52
2019-04-07T07:21:28.702Z,13.90
2019-04-07T07:24:00.245Z,14.05
2019-04-07T07:26:35.110Z,14.09
2019-04-07T07:29:06.369Z,14.00
2019-04-07T07:31:37.953Z,14.00
2019-04-07T07:34:10.822Z,14.02
2019-04-07T07:36:42.847Z,14.14
2019-04-07T07:39:14.596Z,14.21
2019-04-07T07:41:46.303Z,14.57
2019-04-07T07:44:17.830Z,14.62
2019-04-07T07:46:50.672Z,14.73
2019-04-07T07:49:22.351Z,14.97
2019-04-07T07:51:54.003Z,15.19
2019-04-07T07:54:28.347Z,15.01
2019-04-07T07:56:59.070Z,15.03
2019-04-07T07:59:34.604Z,14.75
2019-04-07T08:02:11.029Z,14.99
2019-04-07T08:04:43.515Z,15.24
2019-04-07T08:07:16.545Z,15.01
2019-04-07T08:09:48.178Z,15.03
2019-04-07T08:12:20.577Z,15.12
2019-04-07T08:14:55.236Z,15.35
2019-04-07T08:17:25.911Z,15.59
2019-04-07T08:19:57.788Z,15.45
2019-04-07T08:22:33.752Z,15.75
2019-04-07T08:25:02.523Z,15.57
2019-04-07T08:27:34.428Z,15.65
2019-04-07T08:30:12.514Z,15.76
2019-04-07T08:32:42.220Z,15.78
2019-04-07T08:35:14.348Z,15.82
2019-04-07T08:37:47.619Z,15.80
2019-04-07T08:40:19.928Z,15.88
2019-04-07T08:42:52.149Z,15.79
2019-04-07T08:45:23.563Z,16.08
2019-04-07T08:47:55.436Z,16.18
2019-04-07T08:50:28.503Z,16.10
2019-04-07T08:53:00.219Z,16.12
2019-04-07T08:55:31.696Z,16.30
2019-04-07T08:58:05.305Z,16.08
2019-04-07T09:00:40.449Z,16.21
2019-04-07T09:03:15.130Z,16.43
2019-04-07T09:05:45.519Z,16.36
2019-04-07T09:08:17.870Z,16.24
2019-04-07T09:11:10.058Z,16.22
2019-04-07T09:13:44.054Z,16.25
2019-04-07T09:16:20.080Z,16.51
2019-04-07T09:19:09.493Z,16.73
2019-04-07T09:21:51.632Z,16.77
2019-04-07T09:24:36.085Z,16.72
2019-04-07T09:27:12.036Z,16.64
2019-04-07T09:29:58.985Z,16.73
2019-04-07T09:32:38.379Z,16.95
2019-04-07T09:35:15.514Z,17.03
2019-04-07T09:37:53.357Z,16.72
2019-04-07T09:40:28.855Z,16.83
2019-04-07T09:43:01.944Z,16.93
2019-04-07T09:45:38.574Z,16.84
2019-04-07T09:48:10.883Z,16.92
2019-04-07T09:50:55.161Z,16.98
2019-04-07T09:53:28.639Z,17.03
2019-04-07T09:56:08.739Z,16.88
2019-04-07T09:58:55.889Z,16.94
2019-04-07T10:01:35.319Z,16.92
2019-04-07T10:04:15.242Z,16.86
2019-04-07T10:07:04.830Z,16.79
2019-04-07T10:10:04.751Z,17.04
2019-04-07T10:12:44.930Z,17.05
2019-04-07T10:15:36.202Z,17.20
2019-04-07T10:18:13.117Z,17.18
2019-04-07T10:20:46.721Z,17.06
2019-04-07T10:23:25.410Z,17.42
2019-04-07T10:26:15.693Z,17.35
2019-04-07T10:28:51.683Z,17.31
2019-04-07T10:31:24.620Z,17.19
2019-04-07T10:34:16.280Z,17.26
2019-04-07T10:36:55.752Z,17.45
2019-04-07T10:39:28.856Z,17.24
2019-04-07T10:42:19.006Z,17.36
2019-04-07T10:45:04.730Z,17.22
2019-04-07T10:47:41.191Z,17.42
2019-04-07T10:50:32.544Z,17.40
2019-04-07T10:53:06.299Z,17.44
2019-04-07T10:55:43.050Z,17.60
2019-04-07T10:58:32.357Z,17.62
2019-04-07T11:01:10.008Z,17.61
2019-04-07T11:03:59.835Z,17.67
2019-04-07T11:06:42.150Z,17.87
2019-04-07T11:09:18.170Z,17.94
2019-04-07T11:12:07.413Z,17.88
2019-04-07T11:14:44.443Z,17.83
2019-04-07T11:17:25.392Z,18.05
2019-04-07T11:20:04.291Z,17.86
2019-04-07T11:22:53.099Z,18.12
2019-04-07T11:25:46.147Z,18.16
2019-04-07T11:28:27.872Z,18.10
2019-04-07T11:31:00.583Z,18.11
2019-04-07T11:33:38.038Z,18.13
2019-04-07T11:36:21.515Z,18.07
2019-04-07T11:39:00.545Z,18.00
2019-04-07T11:41:50.286Z,18.17
2019-04-07T11:44:32.363Z,18.03
2019-04-07T11:47:07.181Z,18.03
2019-04-07T11:49:53.985Z,17.85
2019-04-07T11:52:29.095Z,17.76
2019-04-07T11:55:18.753Z,17.79
2019-04-07T11:58:09.713Z,17.76
2019-04-07T12:00:41.966Z,17.98
2019-04-07T12:03:33.376Z,18.18
2019-04-07T12:06:07.585Z,18.13
2019-04-07T12:08:51.473Z,18.06
2019-04-07T12:11:31.045Z,18.04
2019-04-07T12:14:20.601Z,18.03
2019-04-07T12:16:55.044Z,18.06
2019-04-07T12:19:34.229Z,18.28
2019-04-07T12:22:12.811Z,18.27
2019-04-07T12:24:45.714Z,18.31
2019-04-07T12:27:31.480Z,18.28
2019-04-07T12:30:22.537Z,18.28
2019-04-07T12:33:12.168Z,17.94
2019-04-07T12:35:55.144Z,17.94
2019-04-07T12:38:30.679Z,18.05
2019-04-07T12:41:15.079Z,18.17
2019-04-07T12:43:49.562Z,18.13
2019-04-07T12:46:29.110Z,18.08
2019-04-07T12:49:10.187Z,17.98
2019-04-07T12:51:55.983Z,18.11
2019-04-07T12:54:44.884Z,18.43
2019-04-07T12:57:35.428Z,18.55
2019-04-07T13:00:27.723Z,18.55
2019-04-07T13:03:11.679Z,18.33
2019-04-07T13:06:01.909Z,18.31
2019-04-07T13:08:45.832Z,18.43
2019-04-07T13:11:31.986Z,18.50
2019-04-07T13:14:05.040Z,18.47
2019-04-07T13:16:52.879Z,18.40
2019-04-07T13:19:29.835Z,18.27
2019-04-07T13:22:20.280Z,18.29
2019-04-07T13:24:58.189Z,18.38
2019-04-07T13:27:42.774Z,18.46
2019-04-07T13:30:17.074Z,18.39
2019-04-07T13:32:56.672Z,18.26
2019-04-07T13:35:29.481Z,18.15
2019-04-07T13:38:03.226Z,18.16
2019-04-07T13:40:36.244Z,18.20
2019-04-07T13:43:12.312Z,18.14
2019-04-07T13:46:04.102Z,18.22
2019-04-07T13:48:38.912Z,18.09
2019-04-07T13:51:29.586Z,18.17
2019-04-07T13:54:16.208Z,18.17
2019-04-07T13:56:52.122Z,18.22
2019-04-07T13:59:44.071Z,18.22
2019-04-07T14:02:35.656Z,18.28
2019-04-07T14:05:11.267Z,18.22
2019-04-07T14:07:51.767Z,18.14
2019-04-07T14:10:25.623Z,18.09
2019-04-07T14:13:07.910Z,18.02
2019-04-07T14:15:46.426Z,17.90
2019-04-07T14:18:35.571Z,17.90
2019-04-07T14:21:34.933Z,17.97
2019-04-07T14:24:28.315Z,17.94
2019-04-07T14:27:04.360Z,17.95
2019-04-07T14:29:53.059Z,17.99
2019-04-07T14:32:45.402Z,17.95
2019-04-07T14:35:43.095Z,17.92
2019-04-07T14:38:16.913Z,17.84
2019-04-07T14:40:50.033Z,17.88
2019-04-07T14:43:29.906Z,18.00
2019-04-07T14:46:21.134Z,17.97
2019-04-07T14:49:01.129Z,17.98
2019-04-07T14:51:45.083Z,17.86
2019-04-07T14:54:36.447Z,17.96
2019-04-07T14:57:10.454Z,17.90
2019-04-07T14:59:43.844Z,17.90
2019-04-07T15:02:17.100Z,17.90
2019-04-07T15:04:50.951Z,17.79
2019-04-07T15:07:26.375Z,17.79
2019-04-07T15:09:59.835Z,17.76
2019-04-07T15:12:48.562Z,17.81
2019-04-07T15:15:21.457Z,17.80
2019-04-07T15:17:55.804Z,17.75
2019-04-07T15:20:28.139Z,17.78
2019-04-07T15:23:00.580Z,17.64
2019-04-07T15:25:32.842Z,17.60
2019-04-07T15:28:04.457Z,17.52
2019-04-07T15:30:36.299Z,17.57
2019-04-07T15:33:07.843Z,17.48
2019-04-07T15:35:39.561Z,17.50
2019-04-07T15:38:11.437Z,17.37
2019-04-07T15:40:44.020Z,17.35
2019-04-07T15:43:15.851Z,17.29
2019-04-07T15:45:48.635Z,17.19
2019-04-07T15:48:21.406Z,17.22
2019-04-07T15:50:54.083Z,17.17
2019-04-07T15:53:25.683Z,17.09
2019-04-07T15:56:03.043Z,16.99
2019-04-07T15:58:31.000Z,17.05
2019-04-07T16:01:05.908Z,16.96
2019-04-07T16:03:35.653Z,16.86
2019-04-07T16:06:07.804Z,16.88
2019-04-07T16:08:40.437Z,16.73
2019-04-07T16:11:12.661Z,16.74
2019-04-07T16:13:44.376Z,16.70
2019-04-07T16:16:15.940Z,16.68
2019-04-07T16:18:47.413Z,16.59
2019-04-07T16:21:19.527Z,16.57
2019-04-07T16:23:53.351Z,16.42
2019-04-07T16:26:26.100Z,16.34
2019-04-07T16:28:57.941Z,16.32
2019-04-07T16:31:31.182Z,16.33
2019-04-07T16:34:07.531Z,16.27
2019-04-07T16:36:38.018Z,16.21
2019-04-07T16:39:09.980Z,16.18
2019-04-07T16:41:44.232Z,16.11
2019-04-07T16:44:14.596Z,16.16
2019-04-07T16:46:45.966Z,15.96
2019-04-07T16:49:18.986Z,15.81
2019-04-07T16:51:51.471Z,15.82
2019-04-07T16:54:23.402Z,15.91
2019-04-07T16:56:57.143Z,15.91
2019-04-07T16:59:28.288Z,15.83
2019-04-07T17:02:00.214Z,15.86
2019-04-07T17:04:32.238Z,15.75
2019-04-07T17:07:05.462Z,15.60
2019-04-07T17:09:36.857Z,15.43
2019-04-07T17:12:11.129Z,15.25
2019-04-07T17:14:41.328Z,15.09
2019-04-07T17:17:15.616Z,14.95
2019-04-07T17:19:45.949Z,14.99
2019-04-07T17:22:18.136Z,15.08
2019-04-07T17:24:50.680Z,15.11
2019-04-07T17:27:22.934Z,14.96
2019-04-07T17:29:55.447Z,14.83
2019-04-07T17:32:27.429Z,14.93
2019-04-07T17:34:59.733Z,14.94
2019-04-07T17:37:31.801Z,14.90
2019-04-07T17:40:08.672Z,14.83
2019-04-07T17:42:39.822Z,14.77
2019-04-07T17:45:29.731Z,14.79
2019-04-07T17:48:07.137Z,14.69
2019-04-07T17:50:44.203Z,14.54
2019-04-07T17:53:19.243Z,14.57
2019-04-07T17:55:59.806Z,14.39
2019-04-07T17:58:36.758Z,14.40
2019-04-07T18:01:24.801Z,14.43
2019-04-07T18:04:17.259Z,14.49
2019-04-07T18:07:07.869Z,14.53
2019-04-07T18:09:51.437Z,14.51
2019-04-07T18:12:27.668Z,14.49
2019-04-07T18:15:17.947Z,14.39
2019-04-07T18:17:53.216Z,14.31
2019-04-07T18:20:40.472Z,14.32
2019-04-07T18:23:13.371Z,14.23
2019-04-07T18:25:46.352Z,14.13
2019-04-07T18:28:23.749Z,14.07
2019-04-07T18:30:57.358Z,14.02
2019-04-07T18:33:33.570Z,13.97
2019-04-07T18:36:19.175Z,13.94
2019-04-07T18:38:56.003Z,13.95
2019-04-07T18:41:47.465Z,13.97
2019-04-07T18:44:30.564Z,13.99
2019-04-07T18:47:07.977Z,13.91
2019-04-07T18:49:53.813Z,13.81
2019-04-07T18:52:43.420Z,13.89
2019-04-07T18:55:27.311Z,13.88
2019-04-07T18:58:00.742Z,13.82
2019-04-07T19:00:37.168Z,13.79
2019-04-07T19:03:10.604Z,13.75
2019-04-07T19:05:43.766Z,13.65
2019-04-07T19:08:20.752Z,13.57
2019-04-07T19:11:16.773Z,13.48
2019-04-07T19:14:21.834Z,13.51
2019-04-07T19:16:36.186Z,13.42
2019-04-07T19:19:14.711Z,13.32
2019-04-07T19:22:04.578Z,13.28
2019-04-07T19:24:37.902Z,13.27
2019-04-07T19:27:19.598Z,13.30
2019-04-07T19:29:57.378Z,13.29
2019-04-07T19:32:31.338Z,13.31
2019-04-07T19:35:21.765Z,13.27
2019-04-07T19:38:14.218Z,13.27
2019-04-07T19:41:00.199Z,13.22
2019-04-07T19:43:33.071Z,13.19
2019-04-07T19:46:15.795Z,13.22
2019-04-07T19:48:49.148Z,13.12
2019-04-07T19:51:34.094Z,13.13
2019-04-07T19:54:07.382Z,13.14
2019-04-07T19:56:46.629Z,13.05
2019-04-07T19:59:21.719Z,13.02
2019-04-07T20:02:03.923Z,12.95
2019-04-07T20:04:44.168Z,12.91
2019-04-07T20:07:21.073Z,12.89
2019-04-07T20:10:06.721Z,12.86
2019-04-07T20:12:45.160Z,12.94
2019-04-07T20:15:29.617Z,12.97
2019-04-07T20:18:07.129Z,12.92
2019-04-07T20:20:50.640Z,12.79
2019-04-07T20:23:28.522Z,12.73
2019-04-07T20:25:59.444Z,12.68
2019-04-07T20:28:35.875Z,12.62
2019-04-07T20:31:09.114Z,12.64
2019-04-07T20:33:45.713Z,12.66
2019-04-07T20:36:24.153Z,12.63
2019-04-07T20:39:00.388Z,12.68
2019-04-07T20:41:47.886Z,12.60
2019-04-07T20:44:25.816Z,12.60
2019-04-07T20:47:05.147Z,12.53
2019-04-07T20:49:42.470Z,12.48
2019-04-07T20:52:17.784Z,12.50
2019-04-07T20:55:08.487Z,12.46
2019-04-07T20:58:13.112Z,12.39
2019-04-07T21:00:57.714Z,12.30
2019-04-07T21:03:38.253Z,12.33
2019-04-07T21:06:11.218Z,12.27
2019-04-07T21:08:56.103Z,12.21
2019-04-07T21:11:29.148Z,12.23
2019-04-07T21:14:05.937Z,12.20
2019-04-07T21:16:57.889Z,12.19
2019-04-07T21:19:35.473Z,12.16
2019-04-07T21:22:16.954Z,12.11
2019-04-07T21:24:58.734Z,12.04
2019-04-07T21:27:38.678Z,11.98
2019-04-07T21:30:29.072Z,11.96
2019-04-07T21:33:02.451Z,11.88
2019-04-07T21:35:51.507Z,11.82
2019-04-07T21:38:29.820Z,11.76
2019-04-07T21:41:18.557Z,11.64
2019-04-07T21:44:01.632Z,11.68
2019-04-07T21:46:35.074Z,11.66
2019-04-07T21:49:08.178Z,11.62
2019-04-07T21:51:57.431Z,11.66
2019-04-07T21:54:39.238Z,11.57
2019-04-07T21:57:19.296Z,11.59
2019-04-07T21:59:56.231Z,11.51
2019-04-07T22:02:47.907Z,11.46
2019-04-07T22:05:37.065Z,11.45
2019-04-07T22:08:14.569Z,11.46
2019-04-07T22:10:43.227Z,11.45
2019-04-07T22:13:15.396Z,11.46
2019-04-07T22:15:51.873Z,11.47
2019-04-07T22:18:19.983Z,11.50
2019-04-07T22:20:54.461Z,11.38
2019-04-07T22:23:25.108Z,11.35
2019-04-07T22:25:57.043Z,11.34
2019-04-07T22:28:30.009Z,11.27
2019-04-07T22:31:01.562Z,11.24
2019-04-07T22:33:33.750Z,11.23
2019-04-07T22:36:05.910Z,11.20
2019-04-07T22:38:37.687Z,11.20
2019-04-07T22:41:10.088Z,11.22
2019-04-07T22:43:41.589Z,11.12
2019-04-07T22:46:21.318Z,11.10
2019-04-07T22:48:46.059Z,11.09
2019-04-07T22:51:17.499Z,11.02
2019-04-07T22:53:49.652Z,10.99
2019-04-07T22:56:20.965Z,11.01
2019-04-07T22:58:52.473Z,10.92
2019-04-07T23:01:23.785Z,10.86
2019-04-07T23:03:56.041Z,10.87
2019-04-07T23:06:27.584Z,10.83
2019-04-07T23:08:59.431Z,10.82
2019-04-07T23:11:30.970Z,10.84
2019-04-07T23:14:03.094Z,10.76
2019-04-07T23:16:34.510Z,10.75
2019-04-07T23:19:06.729Z,10.71
2019-04-07T23:21:38.051Z,10.64
2019-04-07T23:24:09.704Z,10.61
2019-04-07T23:26:41.202Z,10.57
2019-04-07T23:29:12.651Z,10.56
2019-04-07T23:31:44.147Z,10.50
2019-04-07T23:34:15.451Z,10.47
2019-04-07T23:36:46.701Z,10.44
2019-04-07T23:39:18.199Z,10.41
2019-04-07T23:41:49.518Z,10.39
2019-04-07T23:44:21.401Z,10.35
2019-04-07T23:46:53.087Z,10.33
2019-04-07T23:49:24.600Z,10.36
2019-04-07T23:51:55.923Z,10.35
2019-04-07T23:54:27.301Z,10.33
2019-04-07T23:56:58.599Z,10.32
2019-04-07T23:59:30.524Z,10.29
